createdAt,value
2018-06-15T00:02:16.684Z,6.97
2018-06-15T00:04:44.486Z,6.67
2018-06-15T00:07:12.611Z,6.40
2018-06-15T00:09:40.580Z,6.87
2018-06-15T00:12:08.317Z,7.53
2018-06-15T00:14:36.655Z,7.23
2018-06-15T00:17:04.860Z,7.27
2018-06-15T00:19:32.696Z,7.33
2018-06-15T00:22:00.492Z,7.37
2018-06-15T00:24:28.719Z,7.17
2018-06-15T00:26:56.556Z,7.47
2018-06-15T00:29:24.346Z,7.60
2018-06-15T00:31:52.419Z,7.10
2018-06-15T00:34:20.186Z,7.00
2018-06-15T00:36:47.997Z,7.13
2018-06-15T00:39:16.044Z,7.37
2018-06-15T00:41:44.498Z,7.00
2018-06-15T00:44:12.430Z,7.10
2018-06-15T00:46:40.792Z,6.50
2018-06-15T00:49:08.892Z,6.30
2018-06-15T00:51:37.158Z,6.33
2018-06-15T00:54:06.446Z,6.93
2018-06-15T00:56:34.283Z,6.70
2018-06-15T00:59:02.314Z,7.00
2018-06-15T01:01:30.806Z,7.63
2018-06-15T01:03:58.605Z,6.93
2018-06-15T01:06:27.076Z,7.17
2018-06-15T01:08:55.314Z,7.37
2018-06-15T01:11:23.154Z,6.77
2018-06-15T01:13:51.601Z,6.93
2018-06-15T01:16:19.758Z,7.37
2018-06-15T01:18:47.483Z,6.73
2018-06-15T01:21:15.558Z,6.63
2018-06-15T01:23:43.528Z,6.70
2018-06-15T01:26:11.418Z,7.10
2018-06-15T01:28:39.232Z,6.47
2018-06-15T01:31:07.004Z,6.17
2018-06-15T01:33:34.804Z,6.17
2018-06-15T01:36:02.636Z,6.00
2018-06-15T01:38:31.464Z,6.50
2018-06-15T01:40:59.472Z,7.07
2018-06-15T01:43:27.282Z,6.13
2018-06-15T01:45:55.306Z,6.00
2018-06-15T01:48:23.084Z,6.57
2018-06-15T01:50:50.834Z,6.37
2018-06-15T01:53:18.947Z,6.20
2018-06-15T01:55:46.834Z,6.17
2018-06-15T01:58:14.606Z,5.77
2018-06-15T02:00:42.670Z,6.30
2018-06-15T02:03:10.733Z,5.80
2018-06-15T02:05:38.778Z,6.17
2018-06-15T02:08:06.908Z,5.77
2018-06-15T02:10:34.954Z,5.60
2018-06-15T02:13:02.955Z,5.90
2018-06-15T02:15:30.706Z,6.73
2018-06-15T02:17:58.432Z,5.93
2018-06-15T02:20:26.212Z,5.97
2018-06-15T02:22:55.988Z,5.70
2018-06-15T02:25:23.916Z,5.57
2018-06-15T02:27:51.946Z,6.00
2018-06-15T02:30:19.656Z,5.63
2018-06-15T02:32:48.034Z,5.60
2018-06-15T02:35:16.896Z,4.93
2018-06-15T02:37:45.271Z,5.20
2018-06-15T02:40:13.187Z,5.80
2018-06-15T02:42:41.178Z,5.73
2018-06-15T02:45:08.883Z,5.30
2018-06-15T02:47:37.977Z,5.37
2018-06-15T02:50:06.566Z,5.33
2018-06-15T02:52:35.516Z,5.10
2018-06-15T02:55:03.427Z,5.57
2018-06-15T02:57:32.158Z,4.57
2018-06-15T03:00:00.107Z,5.20
2018-06-15T03:02:27.871Z,4.93
2018-06-15T03:04:55.965Z,5.27
2018-06-15T03:07:23.731Z,5.17
2018-06-15T03:09:51.494Z,4.47
2018-06-15T03:12:19.220Z,4.90
2018-06-15T03:14:47.283Z,5.00
2018-06-15T03:17:15.037Z,4.50
2018-06-15T03:19:42.750Z,4.53
2018-06-15T03:22:11.360Z,4.80
2018-06-15T03:24:39.135Z,4.70
2018-06-15T03:27:06.937Z,4.53
2018-06-15T03:29:35.300Z,4.67
2018-06-15T03:32:03.094Z,5.00
2018-06-15T03:34:31.038Z,5.20
2018-06-15T03:36:59.620Z,5.00
2018-06-15T03:39:27.409Z,4.53
2018-06-15T03:41:55.761Z,4.33
2018-06-15T03:44:24.553Z,4.20
2018-06-15T03:46:52.372Z,4.33
2018-06-15T03:49:20.054Z,4.33
2018-06-15T03:51:48.244Z,3.87
2018-06-15T03:54:16.332Z,3.97
2018-06-15T03:56:44.150Z,4.13
2018-06-15T03:59:12.324Z,4.30
2018-06-15T04:01:40.599Z,4.20
2018-06-15T04:04:08.742Z,4.10
2018-06-15T04:06:37.289Z,3.80
2018-06-15T04:09:07.335Z,4.00
2018-06-15T04:11:35.062Z,3.63
2018-06-15T04:14:02.796Z,4.23
2018-06-15T04:16:30.527Z,4.30
2018-06-15T04:18:58.263Z,3.87
2018-06-15T04:21:26.094Z,4.30
2018-06-15T04:23:54.182Z,4.30
2018-06-15T04:26:21.931Z,3.90
2018-06-15T04:28:50.937Z,4.47
2018-06-15T04:31:18.845Z,4.10
2018-06-15T04:33:46.707Z,3.53
2018-06-15T04:36:14.578Z,3.50
2018-06-15T04:38:42.289Z,4.10
2018-06-15T04:41:10.085Z,4.00
2018-06-15T04:43:38.101Z,3.73
2018-06-15T04:46:05.923Z,3.97
2018-06-15T04:48:34.011Z,3.93
2018-06-15T04:51:01.913Z,3.73
2018-06-15T04:53:29.683Z,3.70
2018-06-15T04:56:01.109Z,3.77
2018-06-15T04:58:29.531Z,4.00
2018-06-15T05:00:57.637Z,3.80
2018-06-15T05:03:25.339Z,4.07
2018-06-15T05:05:54.287Z,3.60
2018-06-15T05:08:23.219Z,3.83
2018-06-15T05:10:51.246Z,4.03
2018-06-15T05:13:19.373Z,3.40
2018-06-15T05:15:47.155Z,3.97
2018-06-15T05:18:15.007Z,3.90
2018-06-15T05:20:42.687Z,4.10
2018-06-15T05:23:10.883Z,3.90
2018-06-15T05:25:38.473Z,4.23
2018-06-15T05:28:06.515Z,3.73
2018-06-15T05:30:34.178Z,3.70
2018-06-15T05:33:01.841Z,4.10
2018-06-15T05:35:29.807Z,3.67
2018-06-15T05:37:58.164Z,4.30
2018-06-15T05:40:26.113Z,4.00
2018-06-15T05:42:53.790Z,4.13
2018-06-15T05:45:22.502Z,4.23
2018-06-15T05:47:50.527Z,3.97
2018-06-15T05:50:19.300Z,4.00
2018-06-15T05:52:47.566Z,3.40
2018-06-15T05:55:15.631Z,3.93
2018-06-15T05:57:43.408Z,3.23
2018-06-15T06:00:11.111Z,3.90
2018-06-15T06:02:38.772Z,3.63
2018-06-15T06:05:06.799Z,3.50
2018-06-15T06:07:34.521Z,4.03
2018-06-15T06:10:02.326Z,4.27
2018-06-15T06:12:30.605Z,3.67
2018-06-15T06:14:58.677Z,3.60
2018-06-15T06:17:26.487Z,4.07
2018-06-15T06:19:54.223Z,5.80
2018-06-15T06:22:22.297Z,5.30
2018-06-15T06:24:49.959Z,4.87
2018-06-15T06:27:17.738Z,4.63
2018-06-15T06:29:45.419Z,4.27
2018-06-15T06:32:13.403Z,4.50
2018-06-15T06:34:41.874Z,4.40
2018-06-15T06:37:09.573Z,4.60
2018-06-15T06:39:38.526Z,4.10
2018-06-15T06:42:06.204Z,4.70
2018-06-15T06:44:33.889Z,4.80
2018-06-15T06:47:01.562Z,4.70
2018-06-15T06:49:29.332Z,4.20
2018-06-15T06:51:57.175Z,4.40
2018-06-15T06:54:24.955Z,4.07
2018-06-15T06:56:53.207Z,4.70
2018-06-15T06:59:21.519Z,4.20
2018-06-15T07:11:36.995Z,4.60
2018-06-15T07:14:05.107Z,4.40
2018-06-15T07:16:33.723Z,4.20
2018-06-15T07:19:01.461Z,4.03
2018-06-15T07:21:29.271Z,4.17
2018-06-15T07:23:58.611Z,4.03
2018-06-15T07:26:26.969Z,4.10
2018-06-15T07:28:55.282Z,3.70
2018-06-15T07:31:26.553Z,4.27
2018-06-15T07:33:54.249Z,4.80
2018-06-15T07:36:23.591Z,4.40
2018-06-15T07:38:52.209Z,4.33
2018-06-15T07:41:20.174Z,3.83
2018-06-15T07:43:47.952Z,4.23
2018-06-15T07:46:15.808Z,4.10
2018-06-15T07:48:44.403Z,3.77
2018-06-15T07:51:13.373Z,4.17
2018-06-15T07:53:41.521Z,4.17
2018-06-15T07:56:09.249Z,4.07
2018-06-15T07:58:36.978Z,4.13
2018-06-15T08:01:05.093Z,3.90
2018-06-15T08:03:33.615Z,4.17
2018-06-15T08:06:01.675Z,4.30
2018-06-15T08:08:29.577Z,4.00
2018-06-15T08:10:58.195Z,3.93
2018-06-15T08:13:25.896Z,3.80
2018-06-15T08:15:54.003Z,3.70
2018-06-15T08:18:22.040Z,3.77
2018-06-15T08:20:51.203Z,4.70
2018-06-15T08:23:18.889Z,3.67
2018-06-15T08:25:46.724Z,4.20
2018-06-15T08:28:14.471Z,4.03
2018-06-15T08:30:43.428Z,3.73
2018-06-15T08:33:11.201Z,3.93
2018-06-15T08:35:38.977Z,4.00
2018-06-15T08:38:06.679Z,3.70
2018-06-15T08:40:34.379Z,3.70
2018-06-15T08:43:02.423Z,4.13
2018-06-15T08:45:30.133Z,3.73
2018-06-15T08:47:57.977Z,4.00
2018-06-15T08:50:25.780Z,3.67
2018-06-15T08:52:53.949Z,3.87
2018-06-15T08:55:21.654Z,3.30
2018-06-15T08:57:50.343Z,3.67
2018-06-15T09:00:18.046Z,3.63
2018-06-15T09:02:45.810Z,3.87
2018-06-15T09:05:14.248Z,4.20
2018-06-15T09:07:41.946Z,3.90
2018-06-15T09:10:09.951Z,3.33
2018-06-15T09:12:38.031Z,3.67
2018-06-15T09:15:05.857Z,4.10
2018-06-15T09:17:33.902Z,3.97
2018-06-15T09:20:01.630Z,4.07
2018-06-15T09:22:29.429Z,3.50
2018-06-15T09:24:57.121Z,3.17
2018-06-15T09:27:24.756Z,3.47
2018-06-15T09:29:52.420Z,3.47
2018-06-15T09:32:20.110Z,3.50
2018-06-15T09:34:48.095Z,4.00
2018-06-15T09:37:16.041Z,3.40
2018-06-15T09:39:43.708Z,3.63
2018-06-15T09:42:11.603Z,3.50
2018-06-15T09:44:39.530Z,3.23
2018-06-15T09:47:07.211Z,4.00
2018-06-15T09:49:35.944Z,3.80
2018-06-15T09:52:03.620Z,3.37
2018-06-15T09:54:31.294Z,3.60
2018-06-15T09:56:59.021Z,3.77
2018-06-15T09:59:27.269Z,3.50
2018-06-15T10:01:54.941Z,3.27
2018-06-15T10:04:23.440Z,3.30
2018-06-15T10:06:51.094Z,3.30
2018-06-15T10:09:19.151Z,3.30
2018-06-15T10:11:46.809Z,3.77
2018-06-15T10:14:14.473Z,2.90
2018-06-15T10:16:42.151Z,3.40
2018-06-15T10:19:09.794Z,3.10
2018-06-15T10:21:37.771Z,3.77
2018-06-15T10:33:50.508Z,3.27
2018-06-15T10:36:19.080Z,3.20
2018-06-15T10:38:46.949Z,3.13
2018-06-15T10:41:14.965Z,3.10
2018-06-15T10:43:42.650Z,3.37
2018-06-15T10:46:11.129Z,3.17
2018-06-15T10:48:39.032Z,3.63
2018-06-15T10:51:08.188Z,3.20
2018-06-15T10:53:35.863Z,3.27
2018-06-15T10:56:03.799Z,3.03
2018-06-15T10:58:31.334Z,3.20
2018-06-15T11:00:58.984Z,3.23
2018-06-15T11:03:26.700Z,3.33
2018-06-15T11:05:54.502Z,3.50
2018-06-15T11:08:22.287Z,3.40
2018-06-15T11:10:50.042Z,3.13
2018-06-15T11:13:18.649Z,3.50
2018-06-15T11:15:46.333Z,3.70
2018-06-15T11:18:14.001Z,3.20
2018-06-15T11:20:42.350Z,3.77
2018-06-15T11:23:10.036Z,3.07
2018-06-15T11:25:37.696Z,3.27
2018-06-15T11:28:05.687Z,3.60
2018-06-15T11:30:34.049Z,2.73
2018-06-15T11:33:02.007Z,3.33
2018-06-15T11:35:29.647Z,3.20
2018-06-15T11:37:57.301Z,3.50
2018-06-15T11:40:25.533Z,3.10
2018-06-15T11:42:53.185Z,3.27
2018-06-15T11:45:20.977Z,3.50
2018-06-15T11:47:52.607Z,3.10
2018-06-15T11:50:20.279Z,3.17
2018-06-15T11:52:47.961Z,3.57
2018-06-15T11:55:16.264Z,3.03
2018-06-15T11:57:43.935Z,3.20
2018-06-15T12:00:11.599Z,3.20
2018-06-15T12:02:39.319Z,3.03
2018-06-15T12:05:07.347Z,3.30
2018-06-15T12:07:35.606Z,2.80
2018-06-15T12:10:03.665Z,2.90
2018-06-15T12:12:32.183Z,3.00
2018-06-15T12:14:59.934Z,3.13
2018-06-15T12:17:27.621Z,3.10
2018-06-15T12:19:55.331Z,3.00
2018-06-15T12:22:23.236Z,3.10
2018-06-15T12:24:51.235Z,2.80
2018-06-15T12:27:19.471Z,3.10
2018-06-15T12:29:47.154Z,2.97
2018-06-15T12:32:14.835Z,3.13
2018-06-15T12:34:42.552Z,3.00
2018-06-15T12:37:10.558Z,3.00
2018-06-15T12:39:38.270Z,2.93
2018-06-15T12:42:06.331Z,3.03
2018-06-15T12:44:34.092Z,3.20
2018-06-15T12:47:01.842Z,3.00
2018-06-15T12:49:29.550Z,2.90
2018-06-15T12:51:57.247Z,2.80
2018-06-15T12:54:24.917Z,3.30
2018-06-15T12:56:52.619Z,3.57
2018-06-15T12:59:20.299Z,2.90
2018-06-15T13:01:48.289Z,3.10
2018-06-15T13:04:15.949Z,2.83
2018-06-15T13:06:43.630Z,3.23
2018-06-15T13:09:11.859Z,3.10
2018-06-15T13:11:39.655Z,3.10
2018-06-15T13:14:07.869Z,2.90
2018-06-15T13:16:36.332Z,2.80
2018-06-15T13:19:04.009Z,2.90
2018-06-15T13:21:32.223Z,2.57
2018-06-15T13:24:00.505Z,2.67
2018-06-15T13:26:28.491Z,2.80
2018-06-15T13:28:56.479Z,2.93
2018-06-15T13:31:24.273Z,2.87
2018-06-15T13:33:52.508Z,2.97
2018-06-15T13:36:20.232Z,3.13
2018-06-15T13:38:48.011Z,3.00
2018-06-15T13:41:15.722Z,2.80
2018-06-15T13:43:43.398Z,3.07
2018-06-15T13:46:11.067Z,2.80
2018-06-15T13:48:38.725Z,3.03
2018-06-15T13:51:06.411Z,2.93
2018-06-15T13:53:34.116Z,2.70
2018-06-15T13:56:01.780Z,2.70
2018-06-15T13:58:29.978Z,3.03
2018-06-15T14:00:58.232Z,2.67
2018-06-15T14:03:25.983Z,2.77
2018-06-15T14:05:53.749Z,2.90
2018-06-15T14:08:21.663Z,2.90
2018-06-15T14:10:49.343Z,3.10
2018-06-15T14:13:17.347Z,3.10
2018-06-15T14:15:45.050Z,3.30
2018-06-15T14:18:12.731Z,3.03
2018-06-15T14:20:40.449Z,3.00
2018-06-15T14:23:08.209Z,3.23
2018-06-15T14:25:36.153Z,2.80
2018-06-15T14:28:03.935Z,2.90
2018-06-15T14:30:31.877Z,2.97
2018-06-15T14:32:59.533Z,3.07
2018-06-15T14:35:27.213Z,2.97
2018-06-15T14:37:55.539Z,2.67
2018-06-15T14:40:23.507Z,2.77
2018-06-15T14:42:51.201Z,2.63
2018-06-15T14:45:19.210Z,2.83
2018-06-15T14:47:47.019Z,2.83
2018-06-15T14:50:15.077Z,3.03
2018-06-15T14:52:43.130Z,2.90
2018-06-15T14:55:10.840Z,3.03
2018-06-15T14:57:38.800Z,3.47
2018-06-15T15:00:06.445Z,2.73
2018-06-15T15:02:34.561Z,2.90
2018-06-15T15:05:02.556Z,3.10
2018-06-15T15:17:15.295Z,3.00
2018-06-15T15:19:44.533Z,2.67
2018-06-15T15:22:12.602Z,2.97
2018-06-15T15:24:40.303Z,3.17
2018-06-15T15:27:09.240Z,2.60
2018-06-15T15:29:36.944Z,2.83
2018-06-15T15:32:04.619Z,2.77
2018-06-15T15:34:32.322Z,3.20
2018-06-15T15:37:02.021Z,3.10
2018-06-15T15:39:29.683Z,3.00
2018-06-15T15:41:57.378Z,2.90
2018-06-15T15:44:25.040Z,2.67
2018-06-15T15:46:59.485Z,2.97
2018-06-15T15:49:28.515Z,2.60
2018-06-15T15:51:56.838Z,3.17
2018-06-15T15:54:25.175Z,3.23
2018-06-15T15:56:53.862Z,3.03
2018-06-15T15:59:21.835Z,3.03
2018-06-15T16:01:49.766Z,3.10
2018-06-15T16:04:17.839Z,2.70
2018-06-15T16:06:45.591Z,3.17
2018-06-15T16:09:13.266Z,3.03
2018-06-15T16:11:41.195Z,3.20
2018-06-15T16:14:08.917Z,2.77
2018-06-15T16:16:38.678Z,3.20
2018-06-15T16:19:06.988Z,2.80
2018-06-15T16:21:34.686Z,2.90
2018-06-15T16:24:02.702Z,2.77
2018-06-15T16:26:31.159Z,2.53
2018-06-15T16:28:58.881Z,2.70
2018-06-15T16:31:26.748Z,3.33
2018-06-15T16:43:38.567Z,2.83
2018-06-15T16:46:07.329Z,2.73
2018-06-15T16:48:35.045Z,3.00
2018-06-15T16:51:02.821Z,2.70
2018-06-15T16:53:32.150Z,2.90
2018-06-15T16:56:00.297Z,3.23
2018-06-15T16:58:28.425Z,2.70
2018-06-15T17:00:56.439Z,2.73
2018-06-15T17:03:24.249Z,2.90
2018-06-15T17:05:53.764Z,3.03
2018-06-15T17:08:21.991Z,2.60
2018-06-15T17:10:49.768Z,2.70
2018-06-15T17:13:17.551Z,2.90
2018-06-15T17:28:40.302Z,2.70
2018-06-15T17:31:08.448Z,3.03
2018-06-15T17:33:36.193Z,2.90
2018-06-15T17:36:04.471Z,3.00
2018-06-15T17:38:32.450Z,3.03
2018-06-15T17:41:00.205Z,2.83
2018-06-15T17:43:27.899Z,2.90
2018-06-15T17:45:55.615Z,2.80
2018-06-15T17:48:23.290Z,3.40
2018-06-15T17:50:51.461Z,3.07
2018-06-15T17:53:19.591Z,3.53
2018-06-15T17:55:48.075Z,4.00
2018-06-15T17:58:17.638Z,3.10
2018-06-15T18:00:45.416Z,4.60
2018-06-15T18:03:13.112Z,3.47
2018-06-15T18:05:41.163Z,3.40
2018-06-15T18:08:08.879Z,3.60
2018-06-15T18:10:37.079Z,3.50
2018-06-15T18:13:04.809Z,3.10
2018-06-15T18:15:32.558Z,3.40
2018-06-15T18:18:00.255Z,3.07
2018-06-15T18:30:17.099Z,3.40
2018-06-15T18:32:44.882Z,2.77
2018-06-15T18:35:13.457Z,3.13
2018-06-15T18:37:50.087Z,2.93
2018-06-15T18:40:17.799Z,2.80
2018-06-15T18:42:45.499Z,2.60
2018-06-15T18:45:13.173Z,2.67
2018-06-15T18:47:41.316Z,2.60
2018-06-15T18:50:10.305Z,2.67
2018-06-15T18:52:39.699Z,2.70
2018-06-15T18:55:08.068Z,2.60
2018-06-15T18:57:37.235Z,2.93
2018-06-15T19:00:06.199Z,2.60
2018-06-15T19:02:34.247Z,2.50
2018-06-15T19:05:01.946Z,2.50
2018-06-15T19:07:30.485Z,2.63
2018-06-15T19:09:59.397Z,3.00
2018-06-15T19:12:27.251Z,3.80
2018-06-15T19:14:54.923Z,5.83
2018-06-15T19:17:22.811Z,5.97
2018-06-15T19:19:50.539Z,5.90
2018-06-15T19:22:29.892Z,7.37
2018-06-15T19:24:57.839Z,6.30
2018-06-15T19:27:25.893Z,8.90
2018-06-15T19:29:53.663Z,7.60
2018-06-15T19:32:21.435Z,7.30
2018-06-15T19:34:49.402Z,7.70
2018-06-15T19:37:17.160Z,7.47
2018-06-15T19:39:44.918Z,7.83
2018-06-15T19:42:13.359Z,8.67
2018-06-15T19:44:41.119Z,7.60
2018-06-15T19:47:08.847Z,7.87
2018-06-15T19:49:37.572Z,7.90
2018-06-15T19:52:05.872Z,7.30
2018-06-15T20:04:19.834Z,5.50
2018-06-15T20:06:48.651Z,6.33
2018-06-15T20:09:16.445Z,5.63
2018-06-15T20:11:44.007Z,6.10
2018-06-15T20:14:11.683Z,5.53
2018-06-15T20:16:41.325Z,5.83
2018-06-15T20:19:09.691Z,5.27
2018-06-15T20:21:37.711Z,6.10
2018-06-15T20:24:05.409Z,6.33
2018-06-15T20:26:36.623Z,5.40
2018-06-15T20:29:04.735Z,5.60
2018-06-15T20:31:32.796Z,5.80
2018-06-15T20:34:00.769Z,5.73
2018-06-15T20:36:28.601Z,5.73
2018-06-15T20:38:56.367Z,5.50
2018-06-15T20:41:24.090Z,6.10
2018-06-15T20:43:52.285Z,5.77
2018-06-15T20:46:20.209Z,6.23
2018-06-15T20:48:47.928Z,5.13
2018-06-15T20:51:15.918Z,6.90
2018-06-15T20:53:43.622Z,5.13
2018-06-15T20:56:12.309Z,4.97
2018-06-15T20:58:40.680Z,4.80
2018-06-15T21:01:08.461Z,4.93
2018-06-15T21:03:36.717Z,4.80
2018-06-15T21:06:04.807Z,4.93
2018-06-15T21:08:32.848Z,5.40
2018-06-15T21:11:00.495Z,5.30
2018-06-15T21:13:28.152Z,4.80
2018-06-15T21:15:55.799Z,4.60
2018-06-15T21:18:24.854Z,5.07
2018-06-15T21:20:52.518Z,4.73
2018-06-15T21:23:20.185Z,4.47
2018-06-15T21:25:47.879Z,4.70
2018-06-15T21:28:15.745Z,5.40
2018-06-15T21:30:43.702Z,4.73
2018-06-15T21:33:11.373Z,5.00
2018-06-15T21:35:39.361Z,5.57
2018-06-15T21:38:07.574Z,4.83
2018-06-15T21:40:36.079Z,4.67
2018-06-15T21:43:04.075Z,4.17
2018-06-15T21:45:32.504Z,4.70
2018-06-15T21:48:00.175Z,4.87
2018-06-15T21:50:28.143Z,5.00
2018-06-15T21:52:55.787Z,4.40
2018-06-15T21:55:24.412Z,4.77
2018-06-15T21:57:52.075Z,5.07
2018-06-15T22:00:19.743Z,5.20
2018-06-15T22:02:47.815Z,4.87
2018-06-15T22:05:15.507Z,5.73
2018-06-15T22:07:43.465Z,4.87
2018-06-15T22:10:11.137Z,5.37
2018-06-15T22:12:39.097Z,5.90
2018-06-15T22:15:06.833Z,5.10
2018-06-15T22:17:34.727Z,5.10
2018-06-15T22:20:02.507Z,5.63
2018-06-15T22:22:30.476Z,5.30
2018-06-15T22:24:58.179Z,5.60
2018-06-15T22:27:26.141Z,5.17
2018-06-15T22:29:53.783Z,5.30
2018-06-15T22:32:21.463Z,5.23
2018-06-15T22:44:30.331Z,5.70
2018-06-15T22:46:57.986Z,5.73
2018-06-15T22:49:25.936Z,5.73
2018-06-15T22:51:53.695Z,5.37
2018-06-15T22:54:21.461Z,5.87
2018-06-15T22:56:49.156Z,5.40
2018-06-15T22:59:17.232Z,6.53
2018-06-15T23:01:45.160Z,5.60
2018-06-15T23:04:13.319Z,5.07
2018-06-15T23:06:40.980Z,5.80
2018-06-15T23:09:10.334Z,5.93
2018-06-15T23:11:38.291Z,5.53
2018-06-15T23:14:07.013Z,6.20
2018-06-15T23:16:34.740Z,6.10
2018-06-15T23:19:02.757Z,5.60
2018-06-15T23:21:30.773Z,6.17
2018-06-15T23:23:58.449Z,5.57
2018-06-15T23:26:26.169Z,5.23
2018-06-15T23:28:55.261Z,5.80
2018-06-15T23:31:23.913Z,5.77
2018-06-15T23:33:51.653Z,5.90
2018-06-15T23:36:19.331Z,6.07
2018-06-15T23:38:47.248Z,6.00
2018-06-15T23:41:14.941Z,5.50
2018-06-15T23:43:42.663Z,5.90
2018-06-15T23:46:10.729Z,5.83
2018-06-15T23:48:38.476Z,5.70
2018-06-15T23:51:06.242Z,5.60
2018-06-15T23:53:34.068Z,6.10
